Time;durP1;ratioP1;P1;durP2;ratioP2;P2;SDS_P1;SDS_P2;PMS_P1;PMS_P2;Temp;Humidity;BMP_temperature;BMP_pressure;BME280_temperature;BME280_humidity;BME280_pressure;Samples;Min_cycle;Max_cycle;Signal;HPM_P1;HPM_P2
2021/06/28 00:01:41;;;;;;;13.45;6.08;;;;;;;23.39;72.48;101218.96;1745556;82;21210;-77
2021/06/28 00:04:14;;;;;;;12.65;6.60;;;;;;;23.36;72.45;101221.88;1711346;84;21211;-70
2021/06/28 00:06:46;;;;;;;9.47;6.03;;;;;;;23.32;72.50;101218.62;1744282;82;21291;-69
2021/06/28 00:09:19;;;;;;;16.37;6.03;;;;;;;23.29;72.56;101217.89;1747337;82;21165;-69
2021/06/28 00:11:51;;;;;;;;;;;;;;;23.24;72.56;101218.05;1715212;83;21251;-70
2021/06/28 00:14:23;;;;;;;12.68;5.65;;;;;;;23.23;72.69;101227.13;1747156;82;20248;-70
2021/06/28 00:16:59;;;;;;;13.22;5.97;;;;;;;23.23;72.90;101241.89;1712712;84;21341;-70
2021/06/28 00:19:32;;;;;;;10.00;6.35;;;;;;;23.21;72.92;101237.12;1755819;77;21801;-79
2021/06/28 00:22:04;;;;;;;;;;;;;;;23.13;72.81;101231.68;1769023;80;21827;-76
2021/06/28 00:24:38;;;;;;;10.90;6.10;;;;;;;23.10;72.90;101235.16;1791978;80;20531;-77
2021/06/28 00:27:10;;;;;;;11.87;6.47;;;;;;;23.05;72.95;101232.48;1793365;80;21887;-75
2021/06/28 00:29:43;;;;;;;8.25;5.65;;;;;;;23.01;73.02;101232.06;1793683;80;21842;-75
2021/06/28 00:32:16;;;;;;;10.23;5.37;;;;;;;22.97;73.18;101235.32;1793165;80;21328;-74
2021/06/28 00:34:50;;;;;;;11.60;6.40;;;;;;;22.97;73.34;101238.16;1792259;80;21668;-74
2021/06/28 00:37:22;;;;;;;10.80;5.72;;;;;;;22.97;73.32;101238.16;1793684;80;21893;-75
2021/06/28 00:39:55;;;;;;;14.58;6.00;;;;;;;22.97;73.12;101245.23;1793797;80;21256;-79
2021/06/28 00:42:27;;;;;;;15.40;5.60;;;;;;;22.91;73.19;101254.45;1794524;80;21323;-75
2021/06/28 00:45:00;;;;;;;9.90;5.40;;;;;;;22.85;73.37;101253.53;1799606;80;21336;-74
2021/06/28 00:47:33;;;;;;;9.70;6.47;;;;;;;22.86;73.74;101255.20;1799275;80;21233;-77
2021/06/28 00:50:06;;;;;;;11.43;6.25;;;;;;;22.89;73.81;101254.53;1793594;80;21680;-74
2021/06/28 00:52:40;;;;;;;22.30;6.12;;;;;;;22.92;73.79;101256.12;1793672;80;21162;-79
2021/06/28 00:55:12;;;;;;;12.10;5.37;;;;;;;22.95;73.82;101263.98;1793739;80;21336;-77
2021/06/28 00:57:45;;;;;;;14.90;5.95;;;;;;;22.95;73.67;101254.63;1793831;80;21716;-78
2021/06/28 01:00:18;;;;;;;7.60;5.50;;;;;;;22.96;73.86;101252.05;1793775;80;21368;-77
2021/06/28 01:02:52;;;;;;;12.45;6.42;;;;;;;22.95;73.84;101257.46;1771767;78;21360;-70
2021/06/28 01:05:28;;;;;;;11.10;5.83;;;;;;;22.99;73.84;101255.65;1719314;82;21217;-70
2021/06/28 01:08:02;;;;;;;12.35;5.70;;;;;;;23.00;73.77;101254.48;1741803;81;21369;-75
2021/06/28 01:10:34;;;;;;;;;;;;;;;22.99;73.78;101254.23;1730308;82;21685;-76
2021/06/28 01:13:09;;;;;;;11.00;5.83;;;;;;;22.97;73.85;101254.55;1713815;84;20790;-69
2021/06/28 01:15:42;;;;;;;18.87;7.17;;;;;;;22.98;73.96;101259.66;1714079;84;21448;-70
2021/06/28 01:18:16;;;;;;;9.55;6.05;;;;;;;22.98;73.82;101263.30;1713721;84;21179;-69
2021/06/28 01:20:48;;;;;;;9.63;5.70;;;;;;;22.96;73.71;101264.23;1714168;84;21432;-68
2021/06/28 01:23:27;;;;;;;10.20;6.20;;;;;;;22.96;73.85;101272.72;1713980;84;21198;-69
2021/06/28 01:26:08;;;;;;;8.83;5.95;;;;;;;22.97;73.74;101276.41;1713867;84;21409;-70
2021/06/28 01:28:42;;;;;;;14.05;6.47;;;;;;;22.97;73.61;101277.83;1713857;84;21207;-69
2021/06/28 01:31:15;;;;;;;11.63;5.57;;;;;;;22.94;73.48;101272.23;1714034;84;21348;-68
2021/06/28 01:33:48;;;;;;;9.78;5.90;;;;;;;22.91;73.53;101273.47;1714084;84;22200;-67
2021/06/28 01:36:32;;;;;;;9.43;6.10;;;;;;;22.87;73.60;101273.26;1713938;84;21199;-68
2021/06/28 01:38:56;;;;;;;10.70;6.95;;;;;;;22.83;73.80;101271.42;1712269;84;21771;-69
2021/06/28 01:41:29;;;;;;;7.53;5.58;;;;;;;22.81;73.98;101276.59;1714079;84;21175;-66
2021/06/28 01:44:01;;;;;;;14.30;5.97;;;;;;;22.73;74.13;101284.48;1714119;84;21345;-70
2021/06/28 01:46:34;;;;;;;9.80;5.00;;;;;;;22.68;74.37;101276.94;1714059;84;21663;-69
2021/06/28 01:49:07;;;;;;;10.00;5.90;;;;;;;22.70;74.58;101285.13;1714105;84;21815;-68
2021/06/28 01:51:39;;;;;;;8.25;5.60;;;;;;;22.73;74.64;101287.31;1714097;84;21874;-74
2021/06/28 01:54:13;;;;;;;10.67;6.13;;;;;;;22.76;74.58;101287.50;1714204;84;21341;-76
2021/06/28 01:56:45;;;;;;;;;;;;;;;22.77;74.42;101289.16;1716330;84;21206;-79
2021/06/28 01:59:17;;;;;;;9.55;6.00;;;;;;;22.73;74.31;101285.90;1713979;84;20181;-76
2021/06/28 02:01:50;;;;;;;12.30;5.65;;;;;;;22.65;74.32;101283.27;1713925;84;21337;-81
2021/06/28 02:04:22;;;;;;;18.77;6.07;;;;;;;22.64;74.37;101289.26;1688752;83;21791;-79
2021/06/28 02:06:56;;;;;;;14.95;6.53;;;;;;;22.62;74.33;101289.58;1719298;83;21297;-77
2021/06/28 02:09:32;;;;;;;9.85;5.55;;;;;;;22.59;74.41;101299.30;1719099;83;21205;-78
2021/06/28 02:12:05;;;;;;;13.83;6.28;;;;;;;22.56;74.58;101301.39;1719312;83;21237;-76
2021/06/28 02:14:38;;;;;;;10.78;5.87;;;;;;;22.55;74.76;101299.72;1719296;83;21265;-77
2021/06/28 02:17:11;;;;;;;14.15;5.97;;;;;;;22.55;74.76;101296.29;1719383;83;21749;-79
2021/06/28 02:19:48;;;;;;;8.38;5.90;;;;;;;22.58;74.83;101303.30;1719388;83;21261;-79
2021/06/28 02:22:20;;;;;;;11.95;6.28;;;;;;;22.57;74.74;101300.22;1751687;78;21398;-73
2021/06/28 02:24:53;;;;;;;15.98;6.03;;;;;;;22.58;74.65;101301.89;1790440;80;21319;-72
2021/06/28 02:27:26;;;;;;;21.10;6.97;;;;;;;22.58;74.67;101307.55;1801828;78;21176;-71
2021/06/28 02:29:58;;;;;;;17.27;6.07;;;;;;;22.59;74.81;101305.81;1784175;80;21177;-72
2021/06/28 02:32:31;;;;;;;20.62;6.83;;;;;;;22.59;74.61;101304.97;1761853;81;21335;-73
2021/06/28 02:35:06;;;;;;;19.45;6.60;;;;;;;22.59;74.69;101307.23;1732182;82;21185;-73
2021/06/28 02:37:40;;;;;;;10.15;6.00;;;;;;;22.59;74.54;101302.98;1761798;81;21846;-72
2021/06/28 02:40:14;;;;;;;15.13;6.60;;;;;;;22.54;74.36;101307.94;1747162;81;21802;-72
2021/06/28 02:42:47;;;;;;;17.17;7.25;;;;;;;22.46;74.55;101311.00;1785938;80;21419;-69
2021/06/28 02:45:20;;;;;;;12.82;6.28;;;;;;;22.38;74.84;101310.31;1762453;81;21327;-70
2021/06/28 02:47:52;;;;;;;9.98;6.62;;;;;;;22.32;75.02;101300.88;1763530;81;21190;-69
2021/06/28 02:50:24;;;;;;;13.50;6.58;;;;;;;22.28;75.07;101306.92;1732075;83;21193;-69
2021/06/28 02:52:59;;;;;;;12.95;6.78;;;;;;;22.21;75.32;101306.55;1762044;81;21323;-69
2021/06/28 02:55:32;;;;;;;;;;;;;;;22.14;75.55;101308.41;1734422;83;21198;-69
2021/06/28 02:58:06;;;;;;;16.05;7.28;;;;;;;22.14;75.72;101304.76;1789272;80;20262;-69
2021/06/28 03:00:39;;;;;;;14.98;7.10;;;;;;;22.12;75.77;101298.59;1763247;81;21197;-69
2021/06/28 03:03:12;;;;;;;14.05;6.33;;;;;;;22.11;75.80;101300.58;1763869;81;21228;-69
2021/06/28 03:05:45;;;;;;;12.37;6.33;;;;;;;22.12;75.94;101304.26;1763958;81;21735;-69
2021/06/28 03:08:18;;;;;;;17.85;6.65;;;;;;;22.13;76.04;101309.56;1763841;81;21252;-68
2021/06/28 03:10:50;;;;;;;20.25;7.10;;;;;;;22.16;76.06;101310.92;1764050;81;21527;-70
2021/06/28 03:13:23;;;;;;;11.40;6.13;;;;;;;22.15;76.09;101310.67;1763530;81;21182;-70
2021/06/28 03:15:56;;;;;;;9.63;6.40;;;;;;;22.13;76.11;101315.83;1732071;83;21323;-69
2021/06/28 03:18:28;;;;;;;11.75;6.65;;;;;;;22.13;76.21;101304.51;1762261;81;21232;-69
2021/06/28 03:21:07;;;;;;;14.95;7.15;;;;;;;22.16;76.41;101306.11;1731876;83;21197;-69
2021/06/28 03:23:41;;;;;;;11.48;6.50;;;;;;;22.19;76.43;101304.63;1769857;80;21317;-69
2021/06/28 03:26:14;;;;;;;14.40;6.40;;;;;;;22.22;76.37;101307.65;1762842;81;21387;-68
2021/06/28 03:28:46;;;;;;;14.05;6.70;;;;;;;22.23;76.38;101299.98;1817222;79;21889;-68
2021/06/28 03:31:19;;;;;;;12.10;6.40;;;;;;;22.22;76.51;101301.98;1792214;79;21866;-69
2021/06/28 03:33:52;;;;;;;11.40;7.53;;;;;;;22.23;76.45;101302.80;1818957;79;21147;-68
2021/06/28 03:36:25;;;;;;;10.48;7.15;;;;;;;22.25;76.66;101309.81;1817862;79;21147;-69
2021/06/28 03:38:57;;;;;;;11.73;6.65;;;;;;;22.28;76.79;101314.00;1817195;79;21143;-69
2021/06/28 03:41:30;;;;;;;12.50;6.45;;;;;;;22.32;76.87;101317.87;1817518;79;21146;-70
2021/06/28 03:44:04;;;;;;;14.98;7.22;;;;;;;22.36;76.92;101323.15;1817190;79;21293;-68
2021/06/28 03:46:37;;;;;;;11.30;7.17;;;;;;;22.42;77.10;101322.67;1818802;79;21162;-69
2021/06/28 03:49:09;;;;;;;14.80;7.05;;;;;;;22.52;77.10;101323.01;1818912;79;21146;-68
2021/06/28 03:51:42;;;;;;;11.18;6.60;;;;;;;22.61;76.77;101331.80;1818895;79;21827;-69
2021/06/28 03:54:16;;;;;;;14.87;6.95;;;;;;;22.68;76.46;101331.35;1818932;79;21799;-69
2021/06/28 03:56:49;;;;;;;17.15;6.08;;;;;;;22.73;75.87;101329.80;1818126;79;21150;-70
2021/06/28 03:59:22;;;;;;;13.20;6.90;;;;;;;22.79;75.64;101334.16;1818506;79;21277;-69
2021/06/28 04:01:54;;;;;;;12.47;6.42;;;;;;;22.86;75.05;101340.19;1817847;79;21344;-70
2021/06/28 04:04:28;;;;;;;21.87;6.03;;;;;;;22.93;74.59;101343.38;1819377;79;21134;-70
2021/06/28 04:07:00;;;;;;;10.43;6.53;;;;;;;22.98;74.54;101339.81;1819030;79;21189;-70
2021/06/28 04:09:34;;;;;;;14.63;7.37;;;;;;;23.14;74.54;101333.11;1818758;79;21667;-70
2021/06/28 04:12:07;;;;;;;13.97;6.83;;;;;;;23.44;74.02;101342.16;1819252;79;21171;-69
2021/06/28 04:14:41;;;;;;;9.93;7.45;;;;;;;23.90;73.37;101338.17;1818899;79;21181;-69
2021/06/28 04:17:14;;;;;;;15.58;7.28;;;;;;;24.47;71.68;101343.87;1818841;79;21234;-69
2021/06/28 04:19:47;;;;;;;8.45;6.45;;;;;;;25.09;69.51;101348.71;1819010;79;21155;-69
2021/06/28 04:22:20;;;;;;;9.75;5.90;;;;;;;25.74;66.32;101342.50;1819187;79;21139;-69
2021/06/28 04:24:52;;;;;;;11.38;5.97;;;;;;;26.32;64.61;101339.50;1806231;78;21874;-68
2021/06/28 04:27:25;;;;;;;9.33;5.65;;;;;;;26.91;63.06;101353.73;1795972;80;21323;-70
2021/06/28 04:29:58;;;;;;;10.32;6.37;;;;;;;27.50;61.76;101354.38;1796016;80;21346;-69
2021/06/28 04:32:30;;;;;;;11.23;5.83;;;;;;;28.02;57.57;101351.85;1796118;80;21309;-70
2021/06/28 04:35:12;;;;;;;11.40;5.78;;;;;;;28.39;55.94;101345.42;1795879;80;21192;-68
2021/06/28 04:37:45;;;;;;;9.83;5.22;;;;;;;28.71;55.12;101356.58;1796090;80;21367;-69
2021/06/28 04:40:18;;;;;;;;;;;;;;;29.04;53.88;101354.23;1798523;79;21172;-69
2021/06/28 04:42:51;;;;;;;7.05;5.10;;;;;;;29.42;53.34;101356.45;1796027;80;20587;-69
2021/06/28 04:45:24;;;;;;;11.97;5.40;;;;;;;29.74;52.95;101360.95;1795988;80;21311;-69
2021/06/28 04:47:57;;;;;;;10.30;4.92;;;;;;;30.02;51.57;101353.84;1795811;80;21374;-70
2021/06/28 04:50:33;;;;;;;10.03;5.20;;;;;;;30.29;49.94;101360.02;1795089;79;21734;-69
2021/06/28 04:53:07;;;;;;;11.53;4.95;;;;;;;30.50;49.38;101359.64;1763307;80;21307;-70
2021/06/28 04:55:40;;;;;;;12.90;5.22;;;;;;;30.74;49.23;101361.59;1764340;81;21418;-71
2021/06/28 04:58:13;;;;;;;9.55;5.25;;;;;;;31.00;47.81;101352.25;1764600;81;21375;-70
2021/06/28 05:00:45;;;;;;;8.10;4.80;;;;;;;31.12;46.62;101352.88;1766094;80;21343;-67
2021/06/28 05:03:18;;;;;;;6.47;5.00;;;;;;;31.15;46.50;101362.17;1794283;80;21232;-70
2021/06/28 05:05:51;;;;;;;12.82;5.62;;;;;;;31.08;46.76;101364.92;1794245;80;21235;-70
2021/06/28 05:08:23;;;;;;;;;;;;;;;31.13;47.36;101358.87;1797045;80;21508;-70
2021/06/28 05:10:57;;;;;;;8.15;4.87;;;;;;;31.31;47.04;101361.48;1794976;78;20289;-70
2021/06/28 05:13:29;;;;;;;9.05;4.67;;;;;;;31.51;44.52;101370.23;1794519;78;21671;-71
2021/06/28 05:16:02;;;;;;;15.63;5.30;;;;;;;31.51;44.52;101370.23;1788384;78;21361;-72
2021/06/28 05:18:35;;;;;;;8.03;4.47;;;;;;;31.49;45.06;101372.63;1794428;80;21252;-68
2021/06/28 05:21:07;;;;;;;5.20;4.50;;;;;;;31.51;44.45;101378.00;1794678;80;21157;-69
2021/06/28 05:23:41;;;;;;;9.18;4.85;;;;;;;31.56;44.52;101377.09;1795936;80;21809;-71
2021/06/28 05:26:14;;;;;;;6.50;4.62;;;;;;;31.57;44.67;101370.72;1795263;78;21326;-71
2021/06/28 05:28:47;;;;;;;12.50;5.00;;;;;;;31.64;44.81;101374.54;1794830;78;21176;-70
2021/06/28 05:31:19;;;;;;;14.07;5.75;;;;;;;31.72;43.56;101378.40;1794776;80;21795;-72
2021/06/28 05:33:52;;;;;;;11.50;5.47;;;;;;;31.75;44.27;101378.45;1794100;80;21188;-69
2021/06/28 05:36:24;;;;;;;14.65;5.80;;;;;;;31.84;44.74;101381.05;1798127;78;21193;-67
2021/06/28 05:38:57;;;;;;;;;;;;;;;31.99;44.84;101381.47;1778379;80;21303;-70
2021/06/28 05:41:29;;;;;;;14.25;5.55;;;;;;;32.16;43.08;101383.16;1776999;79;20354;-69
2021/06/28 05:44:01;;;;;;;8.63;5.10;;;;;;;32.18;44.17;101385.66;1771353;80;21787;-68
2021/06/28 05:46:34;;;;;;;9.75;5.15;;;;;;;32.26;43.13;101381.08;1776596;80;21337;-70
2021/06/28 05:49:06;;;;;;;7.35;5.25;;;;;;;32.38;42.85;101379.39;1778687;80;21315;-72
2021/06/28 05:51:39;;;;;;;15.28;5.05;;;;;;;32.43;42.93;101383.38;1779439;80;21850;-79
2021/06/28 05:54:12;;;;;;;9.83;4.72;;;;;;;32.54;43.48;101377.15;1779383;80;21316;-71
2021/06/28 05:56:44;;;;;;;7.00;4.78;;;;;;;32.89;42.27;101379.02;1777737;81;21363;-71
2021/06/28 05:59:17;;;;;;;13.85;4.35;;;;;;;33.27;41.56;101375.76;1777815;79;21386;-73
2021/06/28 06:01:49;;;;;;;8.83;4.60;;;;;;;33.56;40.00;101381.96;1777905;80;21447;-74
2021/06/28 06:04:22;;;;;;;12.60;4.75;;;;;;;33.71;39.91;101375.09;1778486;80;21359;-76
2021/06/28 06:06:55;;;;;;;12.43;4.33;;;;;;;33.93;40.90;101378.36;1777522;81;21314;-71
2021/06/28 06:09:27;;;;;;;5.90;4.12;;;;;;;34.19;39.21;101381.02;1777902;81;21874;-70
2021/06/28 06:12:01;;;;;;;8.88;4.70;;;;;;;34.27;37.55;101384.17;1777489;80;21344;-69
2021/06/28 06:14:34;;;;;;;5.70;3.67;;;;;;;33.97;37.29;101387.88;1776716;80;21731;-70
2021/06/28 06:17:06;;;;;;;18.30;4.45;;;;;;;33.67;39.03;101393.60;1776049;80;21426;-71
2021/06/28 06:19:41;;;;;;;9.08;3.95;;;;;;;33.62;39.02;101399.73;1775289;80;21331;-70
2021/06/28 06:22:14;;;;;;;9.55;3.85;;;;;;;33.74;38.62;101400.23;1773699;80;21362;-68
2021/06/28 06:24:46;;;;;;;;;;;;;;;33.71;38.47;101396.72;1778625;79;21249;-69
2021/06/28 06:27:18;;;;;;;9.68;4.22;;;;;;;33.69;38.60;101402.07;1777197;78;20262;-69
2021/06/28 06:29:51;;;;;;;8.98;3.98;;;;;;;33.71;37.99;101402.48;1773214;80;21312;-67
2021/06/28 06:32:23;;;;;;;4.80;3.42;;;;;;;33.73;38.08;101407.86;1775257;80;21949;-68
2021/06/28 06:34:56;;;;;;;9.55;3.83;;;;;;;33.72;37.33;101407.63;1775931;79;21378;-68
2021/06/28 06:37:31;;;;;;;7.85;3.58;;;;;;;33.76;37.91;101410.80;1775815;79;21399;-72
2021/06/28 06:40:05;;;;;;;4.50;4.03;;;;;;;33.74;37.28;101420.41;1776890;79;21399;-69
2021/06/28 06:42:37;;;;;;;11.97;3.62;;;;;;;33.67;38.30;101411.71;1776759;80;21843;-67
2021/06/28 06:45:11;;;;;;;6.28;4.10;;;;;;;33.77;38.81;101421.10;1777035;80;21221;-72
2021/06/28 06:47:44;;;;;;;7.78;3.98;;;;;;;33.87;39.20;101420.97;1774344;79;21892;-73
2021/06/28 06:50:17;;;;;;;5.50;3.80;;;;;;;33.95;38.44;101414.86;1776779;79;21229;-67
2021/06/28 06:52:50;;;;;;;6.58;3.77;;;;;;;34.00;38.05;101413.05;1775785;79;21372;-67
2021/06/28 06:55:21;;;;;;;;;;;;;;;33.99;37.30;101409.92;1779315;80;21414;-70
2021/06/28 06:57:54;;;;;;;9.95;3.87;;;;;;;33.88;36.97;101416.25;1777540;80;20269;-68
2021/06/28 07:00:27;;;;;;;10.82;3.83;;;;;;;33.67;37.17;101416.03;1773568;80;21309;-68
2021/06/28 07:02:59;;;;;;;4.00;3.40;;;;;;;33.54;38.13;101408.92;1775792;80;21339;-68
2021/06/28 07:05:32;;;;;;;8.65;3.70;;;;;;;33.63;38.85;101410.03;1775334;80;21177;-69
2021/06/28 07:08:05;;;;;;;18.37;4.08;;;;;;;33.71;38.18;101409.70;1776934;80;21150;-68
2021/06/28 07:10:38;;;;;;;6.87;4.37;;;;;;;33.77;38.38;101412.45;1775883;80;21384;-70
2021/06/28 07:13:14;;;;;;;6.80;3.72;;;;;;;33.84;37.75;101412.50;1775111;79;21316;-69
2021/06/28 07:15:49;;;;;;;9.60;4.47;;;;;;;33.94;38.66;101409.48;1776010;79;21217;-67
2021/06/28 07:18:22;;;;;;;6.10;3.72;;;;;;;34.06;38.57;101410.59;1776622;80;21773;-69
2021/06/28 07:20:54;;;;;;;10.18;3.60;;;;;;;34.15;36.87;101416.22;1775830;80;21316;-74
2021/06/28 07:23:27;;;;;;;3.62;3.25;;;;;;;34.08;37.10;101417.63;1776196;79;21347;-69
2021/06/28 07:25:59;;;;;;;8.55;4.15;;;;;;;34.02;38.11;101420.67;1775892;79;21384;-67
2021/06/28 07:28:33;;;;;;;5.83;3.47;;;;;;;34.07;37.70;101415.13;1777911;79;21189;-69
2021/06/28 07:31:06;;;;;;;4.92;3.60;;;;;;;34.14;38.20;101416.02;1765337;80;21355;-69
2021/06/28 07:33:41;;;;;;;8.85;4.30;;;;;;;34.18;37.74;101413.15;1778231;79;21312;-69
2021/06/28 07:36:13;;;;;;;6.05;4.03;;;;;;;34.16;36.79;101409.22;1778024;80;21316;-69
2021/06/28 07:38:46;;;;;;;6.10;4.00;;;;;;;34.07;37.39;101411.64;1777924;80;21316;-70
2021/06/28 07:41:19;;;;;;;;;;;;;;;34.04;38.10;101415.31;1781675;80;21304;-69
2021/06/28 07:43:52;;;;;;;6.12;3.80;;;;;;;34.03;36.48;101408.53;1779152;80;20285;-71
2021/06/28 07:46:26;;;;;;;7.33;4.00;;;;;;;33.99;37.92;101406.23;1767826;80;21178;-68
2021/06/28 07:48:59;;;;;;;8.15;3.50;;;;;;;33.92;37.73;101406.99;1766912;80;21388;-69
2021/06/28 07:51:36;;;;;;;;;;;;;;;33.81;37.12;101404.67;1736846;82;21332;-69
2021/06/28 07:54:10;;;;;;;7.55;4.03;;;;;;;33.69;37.03;101411.32;1730544;82;20649;-69
2021/06/28 07:56:44;;;;;;;8.05;3.40;;;;;;;33.38;36.36;101409.80;1757261;81;21784;-70
2021/06/28 07:59:16;;;;;;;;;;;;;;;32.94;36.69;101412.41;1774945;80;21181;-67
2021/06/28 08:01:50;;;;;;;7.10;3.95;;;;;;;32.48;37.08;101409.52;1760686;81;20208;-68
2021/06/28 08:04:26;;;;;;;5.15;4.28;;;;;;;32.06;38.79;101414.64;1754552;81;21194;-72
2021/06/28 08:06:59;;;;;;;6.40;4.20;;;;;;;31.80;39.51;101408.31;1757340;81;21379;-72
2021/06/28 08:09:33;;;;;;;8.73;4.20;;;;;;;31.80;41.43;101415.50;1760484;81;21194;-70
2021/06/28 08:12:07;;;;;;;8.90;3.87;;;;;;;31.93;40.34;101414.05;1739950;81;21198;-70
2021/06/28 08:14:41;;;;;;;7.30;3.95;;;;;;;32.09;40.45;101421.88;1761311;81;21424;-72
2021/06/28 08:17:15;;;;;;;5.62;4.45;;;;;;;32.18;39.37;101410.09;1723463;83;21376;-71
2021/06/28 08:19:49;;;;;;;5.37;3.95;;;;;;;32.20;39.69;101413.44;1753277;81;21875;-71
2021/06/28 08:22:26;;;;;;;5.72;3.80;;;;;;;32.20;38.59;101417.75;1708467;83;21349;-71
2021/06/28 08:24:59;;;;;;;6.75;4.45;;;;;;;32.18;38.58;101416.69;1735076;81;21199;-74
2021/06/28 08:27:31;;;;;;;5.30;3.58;;;;;;;32.06;40.68;101422.67;1773137;81;21340;-78
2021/06/28 08:30:08;;;;;;;8.58;4.00;;;;;;;31.85;39.96;101420.89;1758165;80;21846;-72
2021/06/28 08:32:41;;;;;;;9.68;4.10;;;;;;;31.70;38.77;101421.85;1775607;80;21276;-76
2021/06/28 08:35:13;;;;;;;9.48;4.60;;;;;;;31.48;40.28;101421.26;1777478;81;21319;-82
2021/06/28 08:37:46;;;;;;;4.65;4.20;;;;;;;31.23;39.15;101424.29;1777686;79;21308;-68
2021/06/28 08:40:18;;;;;;;12.80;4.22;;;;;;;31.08;40.53;101429.52;1777580;80;21323;-70
2021/06/28 08:42:51;;;;;;;8.63;4.40;;;;;;;30.96;40.45;101421.08;1775344;80;21292;-68
2021/06/28 08:45:25;;;;;;;6.90;4.58;;;;;;;30.84;41.43;101429.02;1772441;80;21358;-69
2021/06/28 08:47:57;;;;;;;12.10;4.12;;;;;;;30.73;40.35;101432.27;1769690;80;21290;-68
2021/06/28 08:50:30;;;;;;;7.22;4.72;;;;;;;30.57;40.53;101432.31;1715275;82;21424;-70
2021/06/28 08:53:04;;;;;;;7.55;4.53;;;;;;;30.26;40.05;101429.57;1738209;82;21186;-71
2021/06/28 08:55:39;;;;;;;10.78;4.45;;;;;;;30.00;41.34;101440.81;1748376;80;21220;-71
2021/06/28 08:58:12;;;;;;;5.53;3.98;;;;;;;29.88;41.37;101435.78;1773013;80;21921;-70
2021/06/28 09:00:44;;;;;;;7.58;4.65;;;;;;;29.88;42.73;101445.22;1771085;79;21202;-70
2021/06/28 09:03:17;;;;;;;11.00;4.97;;;;;;;29.95;43.21;101448.25;1775539;79;21396;-71
2021/06/28 09:06:03;;;;;;;9.88;4.45;;;;;;;29.97;42.27;101450.75;1772086;80;21187;-69
2021/06/28 09:08:35;;;;;;;10.63;4.20;;;;;;;29.97;42.30;101440.14;1770897;79;21231;-70
2021/06/28 09:11:14;;;;;;;8.68;4.65;;;;;;;29.84;41.42;101450.02;1743708;81;21186;-71
2021/06/28 09:13:48;;;;;;;8.48;4.67;;;;;;;29.62;41.67;101450.70;1766036;79;21308;-68
2021/06/28 09:16:30;;;;;;;7.28;4.40;;;;;;;29.46;42.38;101445.54;1775288;79;21400;-70
2021/06/28 09:19:06;;;;;;;5.42;4.80;;;;;;;29.34;42.35;101451.34;1772662;79;21524;-69
2021/06/28 09:21:50;;;;;;;8.20;4.80;;;;;;;29.17;43.30;101447.39;1772024;79;21241;-70
2021/06/28 09:24:40;;;;;;;7.65;5.22;;;;;;;29.13;43.61;101442.78;1769888;80;21319;-70
2021/06/28 09:27:17;;;;;;;7.70;4.70;;;;;;;29.14;43.71;101435.86;1743999;80;21822;-70
2021/06/28 09:29:56;;;;;;;8.08;4.50;;;;;;;29.12;44.08;101437.67;1748372;80;21250;-70
2021/06/28 09:32:27;;;;;;;6.25;4.58;;;;;;;29.11;43.95;101434.55;1746256;82;21190;-79
2021/06/28 09:35:01;;;;;;;6.35;4.35;;;;;;;29.13;44.67;101437.91;1768155;79;21201;-70
2021/06/28 09:37:36;;;;;;;8.28;5.45;;;;;;;29.11;44.33;101435.98;1763094;80;21400;-71
2021/06/28 09:40:10;;;;;;;6.62;5.22;;;;;;;29.03;44.20;101426.98;1726428;80;21923;-74
2021/06/28 09:42:42;;;;;;;7.65;4.53;;;;;;;28.97;44.52;101429.87;1748228;81;21445;-70
2021/06/28 09:45:17;;;;;;;8.20;4.15;;;;;;;29.01;44.44;101426.53;1728774;83;21337;-70
2021/06/28 09:47:50;;;;;;;17.32;4.70;;;;;;;29.12;44.54;101431.95;1744759;80;21840;-70
2021/06/28 09:50:24;;;;;;;8.18;4.53;;;;;;;29.22;44.16;101421.38;1735224;81;21338;-71
2021/06/28 09:52:59;;;;;;;6.80;4.42;;;;;;;29.31;44.55;101416.90;1728634;83;21388;-70
2021/06/28 09:55:37;;;;;;;8.78;4.75;;;;;;;29.39;44.36;101422.45;1750320;81;21869;-71
2021/06/28 09:58:26;;;;;;;6.85;4.95;;;;;;;29.42;43.60;101423.16;1758467;81;21343;-71
2021/06/28 10:01:04;;;;;;;6.80;4.50;;;;;;;29.42;43.92;101428.88;1758863;80;21860;-72
2021/06/28 10:03:45;;;;;;;13.10;4.83;;;;;;;29.39;43.73;101423.87;1758839;81;21341;-71
2021/06/28 10:09:07;;;;;;;13.40;6.53;;;;;;;29.40;44.57;101423.30;1758496;81;21759;-70
2021/06/28 10:11:46;;;;;;;6.92;5.12;;;;;;;29.44;44.48;101419.90;1758598;80;21396;-71
2021/06/28 10:14:20;;;;;;;11.38;5.22;;;;;;;29.51;45.33;101429.52;1758404;81;21323;-70
2021/06/28 10:16:56;;;;;;;5.67;4.83;;;;;;;29.55;44.24;101430.48;1758076;81;21712;-72
2021/06/28 10:19:27;;;;;;;5.95;4.55;;;;;;;29.48;43.90;101421.65;1758463;80;21344;-70
2021/06/28 10:21:59;;;;;;;5.95;5.35;;;;;;;29.43;43.62;101419.09;1758797;81;21834;-71
2021/06/28 10:24:32;;;;;;;10.10;4.83;;;;;;;29.33;44.05;101429.65;1758769;81;21367;-71
2021/06/28 10:27:05;;;;;;;9.23;4.90;;;;;;;29.28;44.46;101429.11;1758708;81;21320;-72
2021/06/28 10:29:38;;;;;;;9.25;4.78;;;;;;;29.28;44.56;101422.77;1758654;81;21336;-71
2021/06/28 10:32:12;;;;;;;5.97;4.50;;;;;;;29.33;44.49;101419.63;1758354;80;21786;-70
2021/06/28 10:34:52;;;;;;;5.58;4.45;;;;;;;29.40;44.50;101419.81;1765659;81;21377;-69
2021/06/28 10:37:36;;;;;;;11.55;4.62;;;;;;;29.50;44.72;101424.99;1757939;81;21222;-71
2021/06/28 10:40:23;;;;;;;10.03;4.85;;;;;;;29.57;44.87;101433.80;1765749;81;21703;-71
2021/06/28 10:42:57;;;;;;;8.03;4.20;;;;;;;29.61;44.59;101431.86;1758304;81;21432;-71
2021/06/28 10:45:44;;;;;;;9.43;5.40;;;;;;;29.67;44.49;101428.10;1758063;80;21901;-70
2021/06/28 10:48:21;;;;;;;5.33;4.28;;;;;;;29.69;44.46;101430.83;1765894;81;21339;-69
2021/06/28 10:51:06;;;;;;;6.15;4.17;;;;;;;29.68;44.71;101437.77;1758203;81;21356;-69
2021/06/28 10:53:57;;;;;;;8.33;4.35;;;;;;;29.65;44.04;101427.66;1758373;81;21328;-69
2021/06/28 10:56:38;;;;;;;9.30;4.20;;;;;;;29.64;43.78;101438.27;1765827;80;21327;-72
2021/06/28 10:59:20;;;;;;;4.65;3.80;;;;;;;29.59;43.55;101445.70;1758017;81;21316;-71
2021/06/28 11:02:01;;;;;;;4.92;4.33;;;;;;;29.57;43.86;101440.11;1769243;80;21391;-71
2021/06/28 11:04:42;;;;;;;6.53;4.40;;;;;;;29.56;43.68;101430.70;1799419;80;21331;-71
2021/06/28 11:07:19;;;;;;;8.53;4.30;;;;;;;29.55;42.17;101430.48;1799163;78;21187;-71
2021/06/28 11:09:58;;;;;;;6.70;4.53;;;;;;;29.51;41.72;101427.23;1799412;78;21295;-72
2021/06/28 11:12:35;;;;;;;12.90;4.25;;;;;;;29.50;41.19;101422.72;1799457;80;21280;-71
2021/06/28 11:15:25;;;;;;;8.13;4.12;;;;;;;29.47;40.94;101419.98;1799188;80;21294;-70
2021/06/28 11:17:59;;;;;;;7.83;4.25;;;;;;;29.40;40.49;101427.59;1799335;78;21149;-69
2021/06/28 11:20:40;;;;;;;6.92;4.28;;;;;;;29.28;40.54;101426.24;1778607;78;21336;-71
2021/06/28 11:23:17;;;;;;;6.00;4.05;;;;;;;29.22;41.37;101425.66;1785655;80;21257;-70
2021/06/28 11:25:59;;;;;;;7.25;4.17;;;;;;;29.24;42.05;101421.85;1785117;79;21375;-70
2021/06/28 11:28:39;;;;;;;9.78;4.35;;;;;;;29.27;42.93;101417.39;1799330;79;21308;-71
2021/06/28 11:31:18;;;;;;;5.17;4.17;;;;;;;29.28;42.42;101422.77;1801023;79;21906;-69
2021/06/28 11:33:53;;;;;;;7.65;4.28;;;;;;;29.30;41.54;101418.95;1822650;79;21719;-72
2021/06/28 11:36:32;;;;;;;6.10;4.47;;;;;;;29.33;41.19;101418.20;1823086;78;21317;-68
2021/06/28 11:39:25;;;;;;;7.17;3.67;;;;;;;29.36;42.00;101420.34;1824314;78;21682;-68
2021/06/28 11:42:34;;;;;;;;;;;;;;;29.37;41.74;101419.13;1805315;78;21312;-71
2021/06/28 11:45:11;;;;;;;9.75;4.70;;;;;;;29.32;40.52;101424.28;1792358;78;20185;-70
2021/06/28 11:47:51;;;;;;;15.15;4.53;;;;;;;29.23;40.73;101424.45;1804782;78;21748;-70
2021/06/28 11:50:33;;;;;;;5.42;4.00;;;;;;;29.22;40.13;101428.52;1813175;78;21336;-70
2021/06/28 11:53:14;;;;;;;4.37;3.73;;;;;;;29.18;40.06;101426.19;1816706;78;21352;-71
2021/06/28 11:55:49;;;;;;;7.60;4.60;;;;;;;29.15;39.86;101419.75;1812263;78;21700;-71
2021/06/28 11:58:24;;;;;;;9.28;4.12;;;;;;;29.13;39.67;101427.88;1805193;78;21182;-70
2021/06/28 12:01:07;;;;;;;4.20;3.80;;;;;;;29.11;40.08;101424.54;1814253;78;21858;-71